Aérodrome :
LOGIN :

S'inscrire | Disclaimer

   EN    FR    IT 

 










Légende :    VFR   VFR Marginal   IFR   IFR Intensif   IFR Très Intensif
Visi : 
Plafond : 
>= 8 km
>= 3000ft
5 à 8 km
1000 à 3000 ft
1500m à 5 km
500 à 1000 ft
800 à 1500m
200 à 500 ft
< 800m
< 200 ft
Symboles :   Orages  Brouillard  Fortes neiges  Fortes précipitations  Vent > 20 kt
SIGMETs :   Divers  Orages  Givrage  Turbulence  Onde Orograph.  Cendres Volcan.







- Altitude de l'aérodrome : 433 ft
- Code IATA : CCF
- Voir les cartes d'approche


LFMK - Carcassonne

DERNIER METAR :
  • 200730Z AUTO 26008KT 230V300 9999 OVC006 06/05 Q1024 BECMG NSC

METARs EXPIRÉS :
  • 200700Z AUTO 26006KT 220V300 9999 OVC008 06/05 Q1024 BECMG NSC
  • 200630Z AUTO 24006KT 9999 BKN008 06/04 Q1024 BECMG NSC
  • 200600Z AUTO 26005KT 220V290 CAVOK 05/04 Q1024 NOSIG
  • 200530Z AUTO VRB03KT CAVOK 05/03 Q1024 NOSIG
  • 200500Z AUTO 28010KT 240V300 CAVOK 05/03 Q1024 NOSIG

TAF AMD TAF LFMK
Valide du 20 à 06h jusqu'au 21 à 03h UTC


200644Z 2006/2103 27012KT CAVOK
TEMPO 2006/2008 BKN008
TEMPO 2100/2103 VRB03KT 1500 BR
Pas de NOTAMs connus pour ce terrain.



MET'MAP, la Météo Aéronautique d'un coup d'oeil ! - Copyright ORBIFLY Décembre 2007 - Disclaimer

ORBIFLY MET'MAP TEAM :

Programmation & Développement : Alexandra Zaïnal
Conception & Développement : Baudouin d'Aumeries
Co-Programmation & Développement : Marc-Olivier Méhu
Soutien technique & logistique : Manuel Goepfert

Contact : metmap@orbifly.com




SOURCES & CREDITS :

   NOAA